Time;durP1;ratioP1;P1;durP2;ratioP2;P2;SDS_P1;SDS_P2;PMS_P1;PMS_P2;Temp;Humidity;BMP_temperature;BMP_pressure;BME280_temperature;BME280_humidity;BME280_pressure;Samples;Min_cycle;Max_cycle;Signal;HPM_P1;HPM_P2
2022/11/30 00:00:21;;;;;;;3.97;2.38;;;;;;;5.41;76.78;94033.09;4965084;28;20051;-81
2022/11/30 00:02:48;;;;;;;6.80;2.30;;;;;;;5.40;76.71;94037.59;4966112;28;20078;-83
2022/11/30 00:05:14;;;;;;;3.38;2.20;;;;;;;5.42;76.66;94042.63;4966277;28;20321;-82
2022/11/30 00:07:39;;;;;;;3.88;1.80;;;;;;;5.41;76.46;94030.44;4966014;28;20103;-81
2022/11/30 00:10:06;;;;;;;3.40;1.92;;;;;;;5.40;76.53;94032.31;4964925;28;20086;-81
2022/11/30 00:12:32;;;;;;;3.85;2.00;;;;;;;5.37;76.61;94038.16;4966062;28;20019;-80
2022/11/30 00:14:57;;;;;;;4.88;2.22;;;;;;;5.42;76.25;94039.97;4966057;28;20031;-81
2022/11/30 00:17:22;;;;;;;6.10;2.72;;;;;;;5.38;76.32;94037.09;4965871;28;20126;-81
2022/11/30 00:19:48;;;;;;;10.32;2.67;;;;;;;5.42;76.27;94046.03;4965853;28;20045;-80
2022/11/30 00:22:13;;;;;;;3.60;2.03;;;;;;;5.42;76.34;94051.31;4965830;28;20030;-81
2022/11/30 00:24:39;;;;;;;4.55;2.17;;;;;;;5.41;76.27;94044.47;4966141;28;20019;-80
2022/11/30 00:27:04;;;;;;;6.93;2.45;;;;;;;5.41;76.33;94048.94;4965596;28;20278;-81
2022/11/30 00:29:30;;;;;;;6.20;2.17;;;;;;;5.38;76.36;94063.53;4965538;28;20059;-87
2022/11/30 00:32:00;;;;;;;3.63;2.10;;;;;;;5.36;76.21;94056.94;4966640;28;20023;-93
2022/11/30 00:34:25;;;;;;;3.97;2.35;;;;;;;5.29;76.35;94057.25;4966758;28;20026;-93
2022/11/30 00:36:53;;;;;;;4.38;1.98;;;;;;;5.29;76.55;94056.44;4997060;28;20221;-93
2022/11/30 00:39:19;;;;;;;5.65;2.20;;;;;;;5.29;76.52;94061.72;4965298;28;20340;-93
2022/11/30 00:41:44;;;;;;;5.57;2.70;;;;;;;5.27;76.75;94063.84;4965460;28;20106;-93
2022/11/30 00:44:10;;;;;;;4.65;2.45;;;;;;;5.26;76.78;94051.72;4966544;28;20023;-93
2022/11/30 00:46:36;;;;;;;6.07;2.30;;;;;;;5.28;76.83;94053.00;4966263;28;20023;-93
2022/11/30 00:49:01;;;;;;;5.30;2.75;;;;;;;5.27;77.02;94046.16;4966507;28;20026;-93
2022/11/30 00:51:26;;;;;;;5.03;2.95;;;;;;;5.29;77.06;94038.75;4997710;28;20022;-92
2022/11/30 00:53:58;;;;;;;5.60;2.60;;;;;;;5.30;76.92;94042.97;4966157;28;20019;-92
2022/11/30 00:56:26;;;;;;;5.65;2.25;;;;;;;5.30;77.02;94034.25;4965963;28;20022;-93
2022/11/30 00:58:54;;;;;;;4.13;2.55;;;;;;;5.30;77.04;94042.19;4966347;28;20034;-94
2022/11/30 01:01:22;;;;;;;7.03;2.47;;;;;;;5.27;77.32;94043.53;4966298;28;20042;-94
2022/11/30 01:03:50;;;;;;;5.40;2.83;;;;;;;5.28;77.15;94039.81;4965997;28;20062;-93
2022/11/30 01:06:16;;;;;;;4.53;2.40;;;;;;;5.25;77.20;94045.66;4966449;28;20081;-93
2022/11/30 01:08:46;;;;;;;3.38;2.10;;;;;;;5.23;77.35;94038.00;4966307;28;20102;-93
2022/11/30 01:11:20;;;;;;;3.28;1.83;;;;;;;5.24;77.43;94046.69;4966171;28;20027;-94
2022/11/30 01:13:48;;;;;;;5.50;2.40;;;;;;;5.23;77.47;94045.91;4965811;28;20296;-88
2022/11/30 01:16:16;;;;;;;3.65;2.13;;;;;;;5.18;77.60;94038.00;4965104;28;20047;-87
2022/11/30 01:18:46;;;;;;;5.00;2.20;;;;;;;5.18;77.78;94043.28;4965324;28;20035;-88
2022/11/30 01:21:14;;;;;;;3.75;2.08;;;;;;;5.14;77.60;94042.25;4965798;28;20027;-90
2022/11/30 01:23:43;;;;;;;3.70;2.05;;;;;;;5.15;77.49;94037.75;4965996;28;20195;-90
2022/11/30 01:26:09;;;;;;;2.38;1.42;;;;;;;5.14;77.75;94039.63;4964615;28;20045;-91
2022/11/30 01:28:35;;;;;;;5.15;1.90;;;;;;;5.09;77.71;94034.38;4964763;28;20070;-90
2022/11/30 01:31:07;;;;;;;3.42;1.55;;;;;;;5.11;77.66;94040.19;4965488;28;20316;-88
2022/11/30 01:33:33;;;;;;;3.55;1.80;;;;;;;5.10;77.65;94048.38;4965130;28;20023;-88
2022/11/30 01:36:00;;;;;;;5.57;2.13;;;;;;;5.05;77.68;94036.00;4964298;28;20229;-92
2022/11/30 01:38:26;;;;;;;3.25;1.95;;;;;;;5.00;78.03;94039.44;4965634;28;20257;-92
2022/11/30 01:40:51;;;;;;;4.60;1.95;;;;;;;5.00;78.04;94044.72;4964676;28;20034;-93
2022/11/30 01:43:18;;;;;;;3.38;1.92;;;;;;;4.99;78.28;94042.38;4965424;28;20045;-92
2022/11/30 01:45:46;;;;;;;3.95;1.83;;;;;;;5.00;78.43;94046.56;4965677;28;20035;-92
2022/11/30 01:48:12;;;;;;;4.32;1.92;;;;;;;5.05;78.21;94048.38;4965290;28;20027;-92
2022/11/30 01:50:37;;;;;;;2.95;1.83;;;;;;;5.05;77.99;94040.47;4964484;28;20027;-92
2022/11/30 01:53:08;;;;;;;4.15;1.88;;;;;;;5.06;77.66;94039.41;4965340;28;20313;-92
2022/11/30 01:55:41;;;;;;;3.92;1.65;;;;;;;5.03;77.73;94040.75;4965418;28;20023;-92
2022/11/30 01:58:26;;;;;;;5.15;1.63;;;;;;;5.01;77.75;94041.03;4965443;28;20031;-91
2022/11/30 02:00:52;;;;;;;2.70;1.90;;;;;;;4.97;77.87;94034.72;4965219;28;20026;-91
2022/11/30 02:03:28;;;;;;;2.35;1.35;;;;;;;5.00;77.79;94033.38;4965474;28;20351;-93
2022/11/30 02:05:53;;;;;;;2.95;1.48;;;;;;;4.97;77.67;94032.06;4965487;28;20027;-94
2022/11/30 02:08:19;;;;;;;2.42;1.65;;;;;;;4.97;77.76;94034.72;4996839;28;20332;-94
2022/11/30 02:10:51;;;;;;;2.33;1.38;;;;;;;4.97;78.00;94026.78;4964600;28;20030;-94
2022/11/30 02:13:27;;;;;;;4.68;1.58;;;;;;;4.95;77.87;94031.56;4965435;28;20023;-93
2022/11/30 02:16:04;;;;;;;2.40;1.73;;;;;;;4.92;78.03;94028.66;4965153;28;20055;-91
2022/11/30 02:18:33;;;;;;;2.97;1.63;;;;;;;4.88;78.08;94025.00;4965261;28;20062;-90
2022/11/30 02:21:12;;;;;;;3.03;1.40;;;;;;;4.92;78.16;94024.16;4965345;28;20026;-90
2022/11/30 02:23:47;;;;;;;1.83;1.20;;;;;;;4.88;77.97;94020.50;4965054;28;20032;-91
2022/11/30 02:26:46;;;;;;;2.78;1.58;;;;;;;4.90;78.08;94034.22;4965341;28;20030;-90
2022/11/30 02:29:32;;;;;;;2.63;1.30;;;;;;;4.87;78.14;94026.84;4965154;28;20049;-91
2022/11/30 02:32:11;;;;;;;2.33;1.45;;;;;;;4.88;78.15;94020.50;4965030;28;20027;-90
2022/11/30 02:34:38;;;;;;;2.40;1.40;;;;;;;4.92;78.08;94021.53;4965079;28;20019;-92
2022/11/30 02:37:39;;;;;;;2.47;1.38;;;;;;;4.88;78.19;94017.84;4965154;28;20020;-92
2022/11/30 02:40:11;;;;;;;2.50;1.23;;;;;;;4.85;78.29;94015.75;4961985;28;20321;-92
2022/11/30 02:42:37;;;;;;;2.35;1.55;;;;;;;4.86;78.27;94017.34;4965068;28;20293;-92
2022/11/30 02:45:03;;;;;;;3.72;1.73;;;;;;;4.87;78.52;94012.84;4965237;28;20023;-92
2022/11/30 02:47:41;;;;;;;2.95;1.52;;;;;;;4.89;78.83;94016.00;4965117;28;20023;-93
2022/11/30 02:50:32;;;;;;;3.00;1.70;;;;;;;4.88;78.91;94004.63;4964678;28;20146;-93
2022/11/30 02:52:58;;;;;;;1.73;1.20;;;;;;;4.90;78.94;94020.22;4959751;28;20031;-91
2022/11/30 02:55:24;;;;;;;3.85;1.35;;;;;;;4.87;78.90;94005.72;4964773;28;20030;-93
2022/11/30 02:57:50;;;;;;;3.17;1.70;;;;;;;4.91;79.01;94019.97;4963840;28;20027;-92
2022/11/30 03:00:16;;;;;;;2.85;1.77;;;;;;;4.89;79.08;94016.81;4966074;28;20023;-92
2022/11/30 03:03:22;;;;;;;2.33;1.38;;;;;;;4.87;79.23;94012.84;4968145;28;20074;-92
2022/11/30 03:05:48;;;;;;;3.20;1.55;;;;;;;4.85;79.37;94017.63;4928860;29;20032;-90
2022/11/30 03:08:13;;;;;;;3.75;1.80;;;;;;;4.80;79.62;94013.94;4928525;29;20071;-91
2022/11/30 03:10:39;;;;;;;3.28;1.75;;;;;;;4.82;79.64;94008.38;4947464;28;20062;-91
2022/11/30 03:13:04;;;;;;;3.00;1.67;;;;;;;4.78;79.74;94012.63;4968096;28;20443;-91
2022/11/30 03:15:30;;;;;;;2.22;1.40;;;;;;;4.77;79.71;94003.13;4967990;28;20030;-91
2022/11/30 03:17:55;;;;;;;2.10;1.25;;;;;;;4.70;80.13;94013.19;4967981;28;20222;-91
2022/11/30 03:20:21;;;;;;;2.40;1.45;;;;;;;4.73;80.11;94007.38;4967864;28;20080;-90
2022/11/30 03:22:46;;;;;;;2.42;1.25;;;;;;;4.72;80.25;94019.00;4968000;28;20032;-91
2022/11/30 03:25:12;;;;;;;2.40;1.27;;;;;;;4.70;80.38;94007.91;4967908;28;20332;-91
2022/11/30 03:27:37;;;;;;;2.05;1.35;;;;;;;4.69;80.47;94015.06;4966794;28;20323;-91
2022/11/30 03:30:04;;;;;;;1.63;1.10;;;;;;;4.66;80.37;94006.88;4967911;28;20038;-91
2022/11/30 03:32:30;;;;;;;1.90;1.20;;;;;;;4.65;80.67;94015.88;4967753;28;20377;-92
2022/11/30 03:34:56;;;;;;;2.25;1.33;;;;;;;4.61;80.92;94016.41;4968590;28;20038;-93
2022/11/30 03:37:21;;;;;;;2.50;1.33;;;;;;;4.61;81.26;94016.41;4968949;28;20082;-92
2022/11/30 03:39:47;;;;;;;2.63;1.42;;;;;;;4.60;81.33;94006.91;4969862;28;20027;-92
2022/11/30 03:42:13;;;;;;;3.80;1.30;;;;;;;4.57;81.37;94017.22;4967004;28;20078;-89
2022/11/30 03:44:38;;;;;;;2.30;1.60;;;;;;;4.56;81.58;94016.44;4998540;28;20059;-90
2022/11/30 03:47:04;;;;;;;2.85;1.30;;;;;;;4.55;81.56;94009.56;4967478;28;20288;-91
2022/11/30 03:49:30;;;;;;;1.67;1.10;;;;;;;4.60;81.48;94022.75;4967251;28;20336;-88
2022/11/30 03:51:55;;;;;;;5.32;1.35;;;;;;;4.61;81.40;94016.41;4966694;28;20023;-88
2022/11/30 03:54:21;;;;;;;1.27;0.82;;;;;;;4.60;81.46;94020.13;4966810;28;20019;-88
2022/11/30 03:56:46;;;;;;;1.95;0.93;;;;;;;4.61;81.62;94018.25;4967393;28;20102;-92
2022/11/30 03:59:12;;;;;;;2.00;1.17;;;;;;;4.62;81.38;94030.41;4967254;28;20042;-91
2022/11/30 04:01:39;;;;;;;2.42;1.17;;;;;;;4.63;81.38;94024.06;4967486;28;20351;-92
2022/11/30 04:04:06;;;;;;;3.55;1.20;;;;;;;4.58;81.38;94024.88;4967063;28;20030;-91
2022/11/30 04:06:31;;;;;;;2.67;1.50;;;;;;;4.54;81.73;94017.75;4966967;28;20018;-90
2022/11/30 04:08:57;;;;;;;2.95;1.42;;;;;;;4.48;82.11;94017.00;4966977;28;20057;-90
2022/11/30 04:11:23;;;;;;;2.15;1.17;;;;;;;4.45;81.91;94017.53;4966600;28;20101;-88
2022/11/30 04:13:48;;;;;;;2.58;0.98;;;;;;;4.41;82.25;94024.41;4967241;28;20023;-91
2022/11/30 04:16:14;;;;;;;1.73;1.17;;;;;;;4.39;82.23;94031.81;4967312;28;20057;-92
2022/11/30 04:18:39;;;;;;;3.50;0.98;;;;;;;4.36;82.31;94025.22;4967187;28;20031;-91
2022/11/30 04:21:06;;;;;;;2.90;1.27;;;;;;;4.37;82.68;94028.66;4998544;28;20340;-91
2022/11/30 04:23:39;;;;;;;5.78;1.42;;;;;;;4.37;82.70;94032.06;4967367;28;20035;-92
2022/11/30 04:26:07;;;;;;;1.85;1.30;;;;;;;4.34;82.82;94031.84;4967865;28;20026;-91
2022/11/30 04:28:33;;;;;;;2.20;1.30;;;;;;;4.36;82.87;94035.00;4967502;28;20023;-91
2022/11/30 04:31:00;;;;;;;3.22;1.25;;;;;;;4.31;83.13;94038.44;4967616;28;20023;-92
2022/11/30 04:33:27;;;;;;;4.00;1.10;;;;;;;4.34;83.23;94043.19;4967103;28;20066;-91
2022/11/30 04:35:55;;;;;;;1.88;1.13;;;;;;;4.35;83.35;94023.63;4967440;28;20027;-91
2022/11/30 04:38:21;;;;;;;4.28;1.70;;;;;;;4.35;83.38;94022.84;4967110;28;20023;-91
2022/11/30 04:40:47;;;;;;;3.58;1.58;;;;;;;4.37;83.28;94026.00;4966999;28;20031;-91
2022/11/30 04:43:13;;;;;;;3.60;1.35;;;;;;;4.40;83.52;94030.75;4966949;28;20046;-91
2022/11/30 04:45:39;;;;;;;2.13;1.17;;;;;;;4.44;83.27;94021.25;4967213;28;20027;-92
2022/11/30 04:48:06;;;;;;;2.35;1.30;;;;;;;4.45;83.12;94028.09;4967031;28;20038;-91
2022/11/30 04:50:32;;;;;;;1.67;1.10;;;;;;;4.45;83.34;94036.00;4966756;28;20156;-92
2022/11/30 04:52:58;;;;;;;3.28;1.30;;;;;;;4.42;83.07;94026.00;4966494;28;20023;-92
2022/11/30 04:55:24;;;;;;;2.67;1.25;;;;;;;4.49;82.80;94044.97;4966658;28;20336;-92
2022/11/30 04:57:50;;;;;;;5.00;2.03;;;;;;;4.41;82.89;94037.59;4964815;28;20034;-88
2022/11/30 05:00:17;;;;;;;5.03;1.95;;;;;;;4.38;83.19;94043.44;4965965;28;20094;-89
2022/11/30 05:02:42;;;;;;;13.75;4.93;;;;;;;4.41;83.04;94038.38;4965763;28;20031;-88
2022/11/30 05:05:09;;;;;;;6.75;3.47;;;;;;;4.43;83.07;94046.81;4965799;28;20050;-90
2022/11/30 05:07:34;;;;;;;2.97;1.92;;;;;;;4.50;82.94;94041.28;4965788;28;20030;-89
2022/11/30 05:10:00;;;;;;;2.90;1.70;;;;;;;4.54;82.75;94038.88;4965673;28;20027;-89
2022/11/30 05:12:25;;;;;;;2.03;1.33;;;;;;;4.53;82.76;94043.38;4965606;28;20030;-88
2022/11/30 05:14:51;;;;;;;3.17;1.60;;;;;;;4.56;82.82;94044.66;4965681;28;20023;-90
2022/11/30 05:17:16;;;;;;;3.45;1.15;;;;;;;4.56;82.38;94050.75;4965805;28;20058;-90
2022/11/30 05:19:42;;;;;;;2.58;1.38;;;;;;;4.57;82.42;94049.69;4965536;28;20023;-88
2022/11/30 05:22:07;;;;;;;3.10;2.22;;;;;;;4.54;82.74;94055.53;4965256;28;20111;-88
2022/11/30 05:24:33;;;;;;;8.43;2.70;;;;;;;4.54;82.54;94046.78;4964872;28;20241;-88
2022/11/30 05:26:58;;;;;;;6.95;2.83;;;;;;;4.58;82.53;94047.81;4965253;28;20030;-88
2022/11/30 05:29:24;;;;;;;7.05;3.17;;;;;;;4.59;82.46;94039.66;4965230;28;20023;-88
2022/11/30 05:31:49;;;;;;;2.33;1.48;;;;;;;4.57;82.61;94041.75;4965099;28;20090;-88
2022/11/30 05:34:15;;;;;;;6.05;2.05;;;;;;;4.60;82.18;94054.44;4965169;28;20026;-89
2022/11/30 05:36:40;;;;;;;6.15;1.98;;;;;;;4.57;82.33;94047.03;4965469;28;20039;-92
2022/11/30 05:39:06;;;;;;;2.17;1.50;;;;;;;4.59;82.29;94052.84;4966942;28;20394;-92
2022/11/30 05:41:32;;;;;;;7.78;1.50;;;;;;;4.58;82.33;94053.09;4966842;28;20321;-92
2022/11/30 05:43:57;;;;;;;2.20;1.48;;;;;;;4.61;82.46;94061.28;4966733;28;20095;-92
2022/11/30 05:46:23;;;;;;;2.38;1.52;;;;;;;4.62;82.82;94060.25;4965107;28;20329;-90
2022/11/30 05:48:48;;;;;;;3.67;1.83;;;;;;;4.67;82.85;94056.00;4965557;28;20027;-92
2022/11/30 05:51:16;;;;;;;4.40;1.77;;;;;;;4.67;82.53;94066.56;4965708;28;20047;-92
2022/11/30 05:53:43;;;;;;;4.22;2.45;;;;;;;4.68;82.40;94061.00;4965565;28;20019;-92
2022/11/30 05:56:13;;;;;;;7.43;2.50;;;;;;;4.73;82.37;94066.25;4965693;28;20253;-92
2022/11/30 05:58:39;;;;;;;4.10;2.30;;;;;;;4.69;82.59;94069.72;4965728;28;20031;-92
2022/11/30 06:01:06;;;;;;;5.53;2.08;;;;;;;4.69;82.16;94067.06;4965716;28;20340;-90
2022/11/30 06:03:33;;;;;;;3.53;1.92;;;;;;;4.70;82.20;94068.63;4965042;28;20027;-90
2022/11/30 06:05:58;;;;;;;4.40;2.05;;;;;;;4.72;82.39;94074.44;4965234;28;20094;-91
2022/11/30 06:08:26;;;;;;;3.85;1.63;;;;;;;4.73;82.29;94076.03;4965373;28;20023;-88
2022/11/30 06:10:52;;;;;;;3.95;1.45;;;;;;;4.79;81.96;94086.28;4965395;28;20364;-90
2022/11/30 06:13:17;;;;;;;3.72;1.63;;;;;;;4.79;81.45;94090.78;4965414;28;20019;-90
2022/11/30 06:15:43;;;;;;;3.30;1.60;;;;;;;4.80;81.58;94090.53;4965109;28;20023;-90
2022/11/30 06:18:11;;;;;;;7.30;1.92;;;;;;;4.73;81.49;94095.31;4964265;28;20118;-93
2022/11/30 06:20:37;;;;;;;5.18;2.30;;;;;;;4.78;81.36;94095.28;4965587;28;20325;-91
2022/11/30 06:23:02;;;;;;;4.70;2.00;;;;;;;4.82;81.40;94095.53;4965068;28;20091;-91
2022/11/30 06:25:28;;;;;;;22.63;12.20;;;;;;;4.87;81.33;94098.16;4964630;28;20030;-87
2022/11/30 06:27:54;;;;;;;9.80;2.88;;;;;;;4.83;80.99;94097.91;4964370;28;20023;-87
2022/11/30 06:30:20;;;;;;;4.20;2.10;;;;;;;4.81;80.71;94091.31;4964499;28;20023;-87
2022/11/30 06:32:50;;;;;;;3.22;1.80;;;;;;;4.78;80.80;94097.94;4963402;28;20070;-86
2022/11/30 06:35:16;;;;;;;5.47;1.73;;;;;;;4.77;80.89;94092.91;4965751;28;20265;-87
2022/11/30 06:37:42;;;;;;;2.60;1.52;;;;;;;4.81;81.08;94089.47;4968492;28;20267;-89
2022/11/30 06:40:08;;;;;;;7.82;1.67;;;;;;;4.77;81.00;94098.19;4968183;28;20046;-88
2022/11/30 06:42:34;;;;;;;5.07;2.00;;;;;;;4.78;81.39;94099.75;4967742;28;20094;-85
2022/11/30 06:44:59;;;;;;;2.60;1.30;;;;;;;4.77;81.08;94098.19;4967951;28;20030;-88
2022/11/30 06:47:26;;;;;;;6.95;4.25;;;;;;;4.79;81.09;94104.00;4967892;28;20042;-87
2022/11/30 06:49:51;;;;;;;4.53;2.97;;;;;;;4.76;81.21;94102.69;4967979;28;20217;-86
2022/11/30 06:52:17;;;;;;;4.93;2.47;;;;;;;4.78;81.43;94099.75;4998953;28;20107;-86
2022/11/30 06:54:42;;;;;;;6.85;1.50;;;;;;;4.75;81.51;94097.69;4967445;28;20023;-87
2022/11/30 06:57:08;;;;;;;4.88;2.08;;;;;;;4.77;81.50;94098.97;4967517;28;20126;-87
2022/11/30 06:59:35;;;;;;;5.25;2.20;;;;;;;4.74;81.48;94090.81;4967737;28;20102;-89
2022/11/30 07:02:01;;;;;;;2.85;1.45;;;;;;;4.77;81.67;94092.91;4966517;28;20029;-84
2022/11/30 07:04:26;;;;;;;4.43;1.70;;;;;;;4.78;81.11;94089.19;4998187;28;20042;-84
2022/11/30 07:06:52;;;;;;;2.65;1.30;;;;;;;4.78;81.00;94089.19;4967301;28;20019;-84
2022/11/30 07:09:17;;;;;;;2.20;1.38;;;;;;;4.70;81.19;94087.13;4966155;28;20023;-83
2022/11/30 07:11:43;;;;;;;2.08;1.33;;;;;;;4.71;81.35;94086.09;4966492;28;20038;-84
2022/11/30 07:14:08;;;;;;;4.03;1.80;;;;;;;4.68;81.41;94094.53;4966159;28;20087;-80
2022/11/30 07:16:34;;;;;;;4.72;1.50;;;;;;;4.68;81.54;94090.06;4967937;28;20059;-82
2022/11/30 07:18:59;;;;;;;6.32;2.10;;;;;;;4.65;81.57;94095.06;4999195;28;20023;-82
2022/11/30 07:21:25;;;;;;;4.55;2.10;;;;;;;4.63;81.68;94082.13;4967168;28;20023;-82
2022/11/30 07:26:52;;;;;;;5.18;2.17;;;;;;;4.60;82.23;94075.56;4984793;28;20109;-81
2022/11/30 07:29:17;;;;;;;3.83;1.77;;;;;;;4.56;81.74;94071.88;4970407;28;20061;-82
2022/11/30 07:31:42;;;;;;;9.32;3.10;;;;;;;4.58;81.63;94087.44;4998458;28;20023;-82
2022/11/30 07:34:09;;;;;;;6.13;2.63;;;;;;;4.57;81.80;94091.91;4965778;28;20027;-81
2022/11/30 07:36:35;;;;;;;8.00;1.92;;;;;;;4.61;81.94;94089.53;4967761;28;20022;-82
2022/11/30 07:39:01;;;;;;;6.47;2.00;;;;;;;4.63;81.51;94085.56;4997026;28;20101;-79
2022/11/30 07:41:26;;;;;;;7.85;2.20;;;;;;;4.61;81.76;94087.69;4966506;28;20309;-79
2022/11/30 07:43:52;;;;;;;6.45;1.90;;;;;;;4.59;81.79;94087.16;4966544;28;20027;-80
2022/11/30 07:46:18;;;;;;;7.22;2.05;;;;;;;4.63;82.00;94082.91;4965999;28;20023;-79
2022/11/30 07:48:44;;;;;;;10.23;1.73;;;;;;;4.63;82.21;94088.22;4997661;28;20332;-79
2022/11/30 07:51:15;;;;;;;2.92;1.48;;;;;;;4.63;82.00;94093.47;4966456;28;20153;-79
2022/11/30 07:53:41;;;;;;;8.85;1.30;;;;;;;4.65;81.73;94085.31;4966526;28;20019;-80
2022/11/30 07:56:09;;;;;;;4.65;1.60;;;;;;;4.67;81.76;94087.69;4966386;28;20069;-79
2022/11/30 07:58:35;;;;;;;5.40;1.40;;;;;;;4.66;81.74;94092.19;4966123;28;20030;-79
2022/11/30 08:01:03;;;;;;;3.53;1.45;;;;;;;4.66;81.71;94080.81;4966462;28;20019;-80
2022/11/30 08:03:29;;;;;;;3.85;1.83;;;;;;;4.66;81.71;94089.53;4966153;28;20065;-80
2022/11/30 08:06:08;;;;;;;3.88;1.92;;;;;;;4.71;81.59;94086.09;4966004;28;20023;-82
2022/11/30 08:08:36;;;;;;;8.52;2.17;;;;;;;4.71;81.50;94086.09;4966262;28;20149;-84
2022/11/30 08:11:03;;;;;;;5.30;1.95;;;;;;;4.72;81.42;94079.72;4966140;28;20047;-85
2022/11/30 08:13:29;;;;;;;3.35;1.80;;;;;;;4.69;81.37;94088.19;4965949;28;20094;-88
2022/11/30 08:15:54;;;;;;;4.53;2.42;;;;;;;4.74;81.79;94088.16;4965863;28;20214;-86
2022/11/30 08:18:20;;;;;;;4.25;1.60;;;;;;;4.80;81.87;94082.63;4965883;28;20091;-84
2022/11/30 08:20:45;;;;;;;4.10;1.92;;;;;;;4.87;81.29;94087.59;4965913;28;20045;-82
2022/11/30 08:23:12;;;;;;;3.70;1.45;;;;;;;4.90;81.23;94087.03;4965848;28;20221;-81
2022/11/30 08:25:37;;;;;;;8.00;1.85;;;;;;;4.96;80.74;94087.81;4965743;28;20039;-83
2022/11/30 08:28:03;;;;;;;3.83;1.67;;;;;;;4.92;80.35;94082.28;4965734;28;20321;-82
2022/11/30 08:30:29;;;;;;;5.10;1.98;;;;;;;4.93;80.52;94086.50;4965623;28;20050;-83
2022/11/30 08:32:55;;;;;;;4.65;2.47;;;;;;;4.94;80.53;94092.56;4965631;28;20194;-87
2022/11/30 08:35:21;;;;;;;6.72;2.30;;;;;;;4.98;80.64;94093.59;4965664;28;20396;-81
2022/11/30 08:37:46;;;;;;;6.53;2.20;;;;;;;5.03;80.63;94098.88;4965501;28;20027;-85
2022/11/30 08:40:12;;;;;;;8.32;2.25;;;;;;;5.02;80.29;94099.94;4965411;28;20023;-83
2022/11/30 08:42:38;;;;;;;4.55;1.90;;;;;;;4.97;80.03;94097.31;4965371;28;20034;-83
2022/11/30 08:45:03;;;;;;;4.05;2.15;;;;;;;4.94;80.10;94090.72;4965477;28;20018;-83
2022/11/30 08:47:29;;;;;;;3.40;1.90;;;;;;;4.98;80.16;94099.69;4965217;28;20258;-81
2022/11/30 08:49:56;;;;;;;5.15;2.15;;;;;;;4.98;80.23;94094.38;4965430;28;20023;-85
2022/11/30 08:52:22;;;;;;;4.28;2.65;;;;;;;4.94;79.58;94092.56;4965470;28;20043;-80
2022/11/30 08:54:48;;;;;;;6.93;2.42;;;;;;;4.91;79.79;94087.84;4965226;28;20218;-82
2022/11/30 08:57:18;;;;;;;9.10;2.70;;;;;;;4.98;80.37;94093.59;4964998;28;20019;-83
2022/11/30 08:59:44;;;;;;;8.27;2.72;;;;;;;4.96;80.47;94098.38;4964007;28;20027;-84
2022/11/30 09:02:11;;;;;;;7.32;2.67;;;;;;;4.98;80.57;94094.38;4965127;28;20057;-84
2022/11/30 09:04:36;;;;;;;6.20;3.00;;;;;;;5.04;80.36;94092.53;4965000;28;20034;-82
2022/11/30 09:07:04;;;;;;;7.03;2.53;;;;;;;5.09;80.49;94089.88;4965164;28;20022;-82
2022/11/30 09:09:35;;;;;;;4.07;2.35;;;;;;;5.13;79.84;94092.72;4963812;28;20224;-81
2022/11/30 09:12:05;;;;;;;4.88;2.40;;;;;;;5.10;80.10;94096.72;4964795;28;20033;-80
2022/11/30 09:14:30;;;;;;;6.60;2.63;;;;;;;5.12;80.40;94094.59;4964921;28;20062;-80
2022/11/30 09:16:56;;;;;;;8.57;2.47;;;;;;;5.15;80.02;94091.41;4964787;28;20117;-80
2022/11/30 09:19:21;;;;;;;9.90;2.67;;;;;;;5.19;80.16;94091.63;4965002;28;20027;-80
2022/11/30 09:21:46;;;;;;;9.35;3.60;;;;;;;5.21;80.00;94097.44;4964953;28;20046;-79
2022/11/30 09:24:12;;;;;;;4.38;2.53;;;;;;;5.24;79.89;94102.19;4963614;28;20034;-80
2022/11/30 09:26:38;;;;;;;4.38;2.25;;;;;;;5.26;79.85;94105.34;4995816;28;20042;-80
2022/11/30 09:29:04;;;;;;;5.88;2.38;;;;;;;5.28;79.74;94105.88;4964840;28;20206;-81
2022/11/30 09:31:29;;;;;;;4.13;2.15;;;;;;;5.27;79.53;94106.94;4964617;28;20039;-82
2022/11/30 09:33:56;;;;;;;5.47;2.08;;;;;;;5.30;79.79;94113.53;4964645;28;20019;-80
2022/11/30 09:36:26;;;;;;;7.40;2.22;;;;;;;5.37;79.94;94108.72;4964389;28;20027;-81
2022/11/30 09:38:52;;;;;;;8.40;2.10;;;;;;;5.46;79.58;94108.94;4964606;28;20198;-82
2022/11/30 09:41:35;;;;;;;8.73;2.25;;;;;;;5.46;79.37;94108.94;4964523;28;20094;-81
2022/11/30 09:44:18;;;;;;;7.00;2.40;;;;;;;5.54;79.49;94116.31;4964559;28;20051;-81
2022/11/30 09:47:07;;;;;;;5.72;2.38;;;;;;;5.59;79.14;94114.38;4964565;28;20147;-81
2022/11/30 09:49:43;;;;;;;6.80;2.55;;;;;;;5.64;78.97;94126.81;4960565;28;20046;-82
2022/11/30 09:52:57;;;;;;;10.02;2.95;;;;;;;5.62;78.56;94123.66;4964229;28;20051;-84
2022/11/30 09:55:30;;;;;;;5.22;2.45;;;;;;;5.62;78.98;94119.16;4959609;28;20078;-79
2022/11/30 09:58:00;;;;;;;6.05;2.13;;;;;;;5.60;78.75;94115.97;4963030;28;20023;-80
2022/11/30 10:00:26;;;;;;;8.38;1.77;;;;;;;5.58;79.11;94109.41;4964212;28;20030;-82
2022/11/30 10:02:54;;;;;;;6.43;2.25;;;;;;;5.56;78.85;94109.66;4964446;28;20102;-81
2022/11/30 10:05:24;;;;;;;6.13;2.70;;;;;;;5.58;79.26;94110.19;4964392;28;20067;-81
2022/11/30 10:08:08;;;;;;;6.85;2.67;;;;;;;5.56;79.71;94093.81;4964328;28;20030;-81
2022/11/30 10:10:40;;;;;;;5.70;2.65;;;;;;;5.64;79.61;94105.66;4967570;28;20356;-82
2022/11/30 10:13:14;;;;;;;7.60;2.90;;;;;;;5.73;79.39;94098.69;4968238;28;20142;-81
2022/11/30 10:16:24;;;;;;;14.48;3.17;;;;;;;5.77;79.26;94094.44;4967984;28;20038;-81
2022/11/30 10:19:22;;;;;;;5.10;1.98;;;;;;;5.66;78.94;94092.13;4965992;28;20039;-78
2022/11/30 10:22:22;;;;;;;7.18;2.13;;;;;;;5.63;79.36;94085.53;4968022;28;20102;-79
2022/11/30 10:25:20;;;;;;;4.57;2.25;;;;;;;5.61;79.41;94082.38;4968025;28;20027;-80
2022/11/30 10:27:53;;;;;;;5.18;3.00;;;;;;;5.55;79.97;94088.78;4968245;28;20038;-79
2022/11/30 10:30:24;;;;;;;8.25;3.00;;;;;;;5.51;80.42;94082.47;4967953;28;20031;-80
2022/11/30 10:32:54;;;;;;;6.60;2.85;;;;;;;5.48;80.54;94070.59;4967955;28;20393;-80
2022/11/30 10:35:52;;;;;;;6.40;2.97;;;;;;;5.43;80.28;94082.00;4967820;28;20027;-80
2022/11/30 10:38:32;;;;;;;10.80;3.35;;;;;;;5.46;80.55;94082.50;4967677;28;20042;-80
2022/11/30 10:41:09;;;;;;;9.43;3.63;;;;;;;5.45;80.89;94075.63;4967515;28;20023;-81
2022/11/30 10:43:42;;;;;;;8.68;4.00;;;;;;;5.50;80.96;94067.69;4967449;28;20034;-81
2022/11/30 10:46:18;;;;;;;6.72;2.92;;;;;;;5.48;80.55;94069.81;4967554;28;20237;-81
2022/11/30 10:48:56;;;;;;;5.80;2.70;;;;;;;5.48;80.49;94069.81;4998618;28;20027;-80
2022/11/30 10:51:24;;;;;;;9.27;3.55;;;;;;;5.45;80.55;94060.56;4967377;28;20027;-81
2022/11/30 10:53:49;;;;;;;22.80;7.38;;;;;;;5.46;80.24;94064.00;4966211;28;20027;-81
2022/11/30 10:56:15;;;;;;;32.50;12.48;;;;;;;5.47;80.90;94068.22;4967400;28;20034;-80
2022/11/30 10:58:49;;;;;;;8.02;3.20;;;;;;;5.41;80.87;94065.63;4967178;28;20046;-81
2022/11/30 11:01:48;;;;;;;4.60;2.60;;;;;;;5.32;81.01;94061.19;4967308;28;20073;-81
2022/11/30 11:04:19;;;;;;;6.55;3.25;;;;;;;5.28;81.34;94055.66;4945476;28;20081;-81
2022/11/30 11:07:06;;;;;;;7.95;3.80;;;;;;;5.26;81.74;94060.44;4967466;28;20027;-81
2022/11/30 11:09:40;;;;;;;6.45;3.75;;;;;;;5.29;81.73;94061.72;4967139;28;20031;-82
2022/11/30 11:12:26;;;;;;;7.13;4.00;;;;;;;5.30;81.76;94053.53;4967057;28;20026;-82
2022/11/30 11:15:21;;;;;;;8.15;3.20;;;;;;;5.28;82.25;94053.00;4966932;28;20250;-80
2022/11/30 11:17:48;;;;;;;10.73;3.60;;;;;;;5.27;81.94;94048.00;4966862;28;20405;-81
2022/11/30 11:20:29;;;;;;;13.40;5.25;;;;;;;5.32;81.88;94054.03;4966456;28;20023;-81
2022/11/30 11:22:55;;;;;;;9.43;3.63;;;;;;;5.31;81.67;94043.75;4966812;28;20027;-80
2022/11/30 11:25:24;;;;;;;7.57;3.20;;;;;;;5.30;81.63;94048.25;4966656;28;20027;-82
2022/11/30 11:27:51;;;;;;;14.77;3.45;;;;;;;5.31;81.78;94049.84;4967090;28;20023;-82
2022/11/30 11:30:31;;;;;;;8.50;2.80;;;;;;;5.27;82.03;94046.16;4967109;28;20030;-82
2022/11/30 11:33:18;;;;;;;6.50;3.17;;;;;;;5.28;81.89;94053.00;4966606;28;20018;-83
2022/11/30 11:35:45;;;;;;;5.80;3.00;;;;;;;5.28;82.25;94046.94;4966761;28;20039;-80
2022/11/30 11:38:40;;;;;;;10.75;3.17;;;;;;;5.30;82.50;94048.25;4966507;28;20050;-81
2022/11/30 11:41:12;;;;;;;6.70;3.50;;;;;;;5.35;82.44;94056.16;4966463;28;20093;-81
2022/11/30 11:44:02;;;;;;;9.73;3.42;;;;;;;5.30;82.38;94056.16;4966603;28;20035;-81
2022/11/30 11:46:30;;;;;;;9.75;3.30;;;;;;;5.28;82.61;94050.38;4966402;28;20027;-83
2022/11/30 11:48:57;;;;;;;6.10;2.90;;;;;;;5.32;82.38;94054.03;4966612;28;20023;-82
2022/11/30 11:51:34;;;;;;;7.78;3.22;;;;;;;5.39;82.14;94045.78;4966390;28;20027;-82
2022/11/30 11:54:08;;;;;;;4.93;2.85;;;;;;;5.44;81.67;94043.13;4966249;28;20102;-81